Time;durP1;ratioP1;P1;durP2;ratioP2;P2;SDS_P1;SDS_P2;PMS_P1;PMS_P2;Temp;Humidity;BMP_temperature;BMP_pressure;BME280_temperature;BME280_humidity;BME280_pressure;Samples;Min_cycle;Max_cycle;Signal;HPM_P1;HPM_P2
2022/12/14 00:01:22;;;;;;;26.23;14.50;;;;;;;-0.96;72.22;98182.06;6205369;23;20740;-82
2022/12/14 00:03:48;;;;;;;33.38;19.75;;;;;;;-0.93;72.33;98181.94;6206457;23;20403;-82
2022/12/14 00:06:23;;;;;;;29.25;16.73;;;;;;;-0.92;72.46;98179.31;6205477;23;20233;-82
2022/12/14 00:08:51;;;;;;;31.63;18.67;;;;;;;-0.91;72.37;98186.16;6203708;23;20182;-82
2022/12/14 00:11:23;;;;;;;28.02;14.45;;;;;;;-0.90;72.40;98186.97;6202630;23;20202;-83
2022/12/14 00:13:53;;;;;;;26.40;17.90;;;;;;;-0.93;72.46;98181.94;6206197;23;20198;-82
2022/12/14 00:16:20;;;;;;;20.83;13.32;;;;;;;-0.93;72.70;98187.09;6205532;23;20232;-82
2022/12/14 00:18:51;;;;;;;25.40;16.15;;;;;;;-0.91;72.74;98190.47;6204583;23;20208;-82
2022/12/14 00:21:16;;;;;;;40.53;19.50;;;;;;;-0.87;72.42;98196.31;6205556;23;20811;-82
2022/12/14 00:23:44;;;;;;;22.60;15.80;;;;;;;-0.85;72.45;98187.63;6205897;23;20167;-83
2022/12/14 00:26:13;;;;;;;22.15;15.80;;;;;;;-0.83;72.81;98172.94;6203373;23;20201;-82
2022/12/14 00:28:39;;;;;;;21.23;14.45;;;;;;;-0.81;72.38;98171.16;6205699;23;20160;-83
2022/12/14 00:31:05;;;;;;;29.88;15.10;;;;;;;-0.80;72.44;98172.00;6202262;22;21068;-84
2022/12/14 00:33:31;;;;;;;26.73;14.63;;;;;;;-0.81;72.68;98173.75;6190855;23;20221;-84
2022/12/14 00:35:57;;;;;;;24.40;15.05;;;;;;;-0.81;72.58;98166.00;6171068;23;20509;-84
2022/12/14 00:38:22;;;;;;;24.90;14.93;;;;;;;-0.79;72.63;98165.91;6208795;23;20206;-84
2022/12/14 00:40:48;;;;;;;28.40;15.77;;;;;;;-0.79;72.94;98173.66;6206927;23;20267;-84
2022/12/14 00:43:14;;;;;;;30.95;16.05;;;;;;;-0.82;72.72;98171.22;6205358;23;20256;-84
2022/12/14 00:45:43;;;;;;;20.80;14.40;;;;;;;-0.79;72.92;98158.19;6209267;23;20257;-83
2022/12/14 00:48:09;;;;;;;22.25;14.48;;;;;;;-0.76;72.72;98147.75;6205318;23;20605;-83
2022/12/14 00:50:34;;;;;;;27.50;17.10;;;;;;;-0.77;72.78;98136.59;6179014;23;20193;-84
2022/12/14 00:53:00;;;;;;;22.07;14.80;;;;;;;-0.78;72.97;98137.50;6207369;23;20415;-83
2022/12/14 00:55:25;;;;;;;25.07;14.77;;;;;;;-0.79;73.25;98138.41;6207644;23;20192;-83
2022/12/14 00:57:51;;;;;;;24.53;13.87;;;;;;;-0.80;73.22;98136.72;6180236;23;20765;-83
2022/12/14 01:00:16;;;;;;;19.73;14.07;;;;;;;-0.77;73.26;98125.47;6206688;23;20247;-83
2022/12/14 01:02:41;;;;;;;23.27;12.93;;;;;;;-0.80;73.54;98131.56;6204497;23;20203;-83
2022/12/14 01:05:07;;;;;;;26.23;12.80;;;;;;;-0.84;73.48;98127.44;6206208;23;20159;-83
2022/12/14 01:07:33;;;;;;;25.60;13.67;;;;;;;-0.86;73.72;98125.81;6206758;23;20170;-83
2022/12/14 01:09:58;;;;;;;20.30;14.43;;;;;;;-0.92;73.81;98119.19;6206410;23;20164;-83
2022/12/14 01:12:24;;;;;;;26.58;15.10;;;;;;;-0.99;74.12;98120.34;6205782;23;20214;-83
2022/12/14 01:14:50;;;;;;;32.80;18.60;;;;;;;-1.02;74.41;98110.16;6207440;23;20546;-84
2022/12/14 01:17:15;;;;;;;26.50;16.67;;;;;;;-0.99;74.61;98110.03;6208111;23;20224;-83
2022/12/14 01:19:40;;;;;;;28.80;14.80;;;;;;;-0.96;74.58;98097.03;6206359;23;20181;-83
2022/12/14 01:22:06;;;;;;;25.73;14.40;;;;;;;-0.93;74.44;98100.31;6204666;23;20851;-83
2022/12/14 01:24:31;;;;;;;29.03;17.10;;;;;;;-0.89;74.32;98106.19;6205972;23;20171;-83
2022/12/14 01:26:57;;;;;;;24.97;15.60;;;;;;;-0.87;74.35;98114.69;6207400;23;20174;-83
2022/12/14 01:29:22;;;;;;;26.03;14.23;;;;;;;-0.85;74.21;98112.88;6208597;23;20244;-83
2022/12/14 01:31:48;;;;;;;26.27;14.53;;;;;;;-0.84;74.44;98111.97;6206847;23;20644;-83
2022/12/14 01:34:13;;;;;;;29.67;14.43;;;;;;;-0.84;74.38;98109.38;6207007;23;20441;-83
2022/12/14 01:36:39;;;;;;;30.17;15.43;;;;;;;-0.83;74.36;98105.94;6204302;23;20175;-83
2022/12/14 01:39:12;;;;;;;29.87;16.67;;;;;;;-0.81;74.30;98086.09;6205007;23;20828;-83
2022/12/14 01:41:44;;;;;;;21.98;15.10;;;;;;;-0.84;74.63;98091.34;6204706;23;20187;-83
2022/12/14 01:44:10;;;;;;;29.40;15.55;;;;;;;-0.86;74.44;98089.72;6204775;23;20165;-83
2022/12/14 01:46:44;;;;;;;33.50;17.73;;;;;;;-0.86;74.46;98095.75;6207670;23;20182;-83
2022/12/14 01:49:41;;;;;;;26.33;15.50;;;;;;;-0.86;74.99;98095.75;6207787;23;20220;-83
2022/12/14 01:52:38;;;;;;;35.45;17.38;;;;;;;-0.84;74.50;98091.34;6203411;23;20202;-83
2022/12/14 01:55:14;;;;;;;32.75;16.75;;;;;;;-0.81;74.67;98083.50;6204489;23;20529;-83
2022/12/14 01:57:52;;;;;;;25.75;15.00;;;;;;;-0.79;74.31;98079.09;6207907;23;20264;-83
2022/12/14 02:00:19;;;;;;;34.47;16.85;;;;;;;-0.77;74.68;98077.31;6206850;23;20180;-83
2022/12/14 02:03:16;;;;;;;41.17;18.20;;;;;;;-0.77;74.69;98084.22;6209396;23;20224;-84
2022/12/14 02:05:51;;;;;;;43.28;29.27;;;;;;;-0.74;75.20;98090.06;6197619;23;20404;-83
2022/12/14 02:08:17;;;;;;;38.80;20.70;;;;;;;-0.74;75.41;98100.38;6206497;23;20841;-83
2022/12/14 02:10:44;;;;;;;34.28;20.17;;;;;;;-0.76;76.04;98103.91;6206219;23;20175;-83
2022/12/14 02:13:26;;;;;;;29.17;17.02;;;;;;;-0.76;75.67;98098.75;6209516;23;20169;-83
2022/12/14 02:15:52;;;;;;;30.27;14.18;;;;;;;-0.76;75.92;98091.84;6181754;23;20700;-83
2022/12/14 02:18:21;;;;;;;34.23;19.40;;;;;;;-0.75;75.45;98096.13;6152021;23;20239;-83
2022/12/14 02:20:58;;;;;;;27.65;16.05;;;;;;;-0.75;75.43;98096.13;6150647;23;20427;-83
2022/12/14 02:23:48;;;;;;;30.45;16.23;;;;;;;-0.73;75.47;98086.59;6120585;23;20667;-83
2022/12/14 02:26:35;;;;;;;33.88;16.80;;;;;;;-0.71;75.61;98074.47;6123469;23;20201;-83
2022/12/14 02:29:29;;;;;;;30.85;18.10;;;;;;;-0.71;75.23;98081.34;6121617;23;20193;-83
2022/12/14 02:32:13;;;;;;;26.83;14.98;;;;;;;-0.72;75.10;98085.69;6148742;23;20722;-83
2022/12/14 02:34:56;;;;;;;26.73;19.02;;;;;;;-0.70;75.26;98085.63;6150049;23;20421;-83
2022/12/14 02:37:49;;;;;;;30.13;17.13;;;;;;;-0.67;75.16;98078.59;6149348;23;20252;-83
2022/12/14 02:40:27;;;;;;;34.22;18.23;;;;;;;-0.64;75.11;98069.06;6149772;23;20176;-83
2022/12/14 02:43:20;;;;;;;31.10;16.50;;;;;;;-0.63;75.04;98081.88;6150610;23;20192;-83
2022/12/14 02:45:49;;;;;;;27.33;19.35;;;;;;;-0.63;74.92;98086.19;6143309;23;20178;-83
2022/12/14 02:48:23;;;;;;;27.33;15.65;;;;;;;-0.64;75.16;98089.69;6145304;23;20543;-83
2022/12/14 02:51:07;;;;;;;27.52;16.02;;;;;;;-0.68;75.05;98087.22;6147134;23;20167;-83
2022/12/14 02:53:38;;;;;;;28.02;15.85;;;;;;;-0.67;75.28;98083.75;6147734;23;20185;-84
2022/12/14 02:56:11;;;;;;;27.95;15.70;;;;;;;-0.67;75.20;98080.34;6148515;23;20181;-83
2022/12/14 02:58:47;;;;;;;31.80;18.20;;;;;;;-0.65;75.37;98081.09;6152208;23;20183;-84
2022/12/14 03:01:17;;;;;;;24.73;15.35;;;;;;;-0.63;75.35;98076.72;6172238;23;20233;-84
2022/12/14 03:03:43;;;;;;;27.92;18.02;;;;;;;-0.60;75.29;98070.59;6179483;23;20276;-84
2022/12/14 03:06:24;;;;;;;30.63;17.17;;;;;;;-0.59;75.06;98065.38;6178731;23;20374;-84
2022/12/14 03:08:56;;;;;;;25.02;14.15;;;;;;;-0.56;75.26;98065.25;6182318;23;20756;-84
2022/12/14 03:11:35;;;;;;;29.63;15.55;;;;;;;-0.56;75.20;98065.25;6180153;23;20195;-84
2022/12/14 03:14:10;;;;;;;26.25;17.63;;;;;;;-0.55;74.88;98073.81;6155728;23;20202;-84
2022/12/14 03:16:41;;;;;;;29.23;18.58;;;;;;;-0.58;75.22;98064.47;6181348;23;20641;-84
2022/12/14 03:19:17;;;;;;;30.58;18.73;;;;;;;-0.57;75.13;98057.56;6180781;23;20178;-83
2022/12/14 03:21:49;;;;;;;32.00;18.55;;;;;;;-0.56;75.08;98044.63;6180415;23;20548;-83
2022/12/14 03:24:21;;;;;;;38.72;19.88;;;;;;;-0.53;75.24;98041.91;6148522;23;20241;-84
2022/12/14 03:26:58;;;;;;;32.63;17.90;;;;;;;-0.53;75.16;98036.72;6145577;23;20654;-83
2022/12/14 03:29:41;;;;;;;33.25;18.80;;;;;;;-0.58;75.20;98025.78;6149115;23;20221;-83
2022/12/14 03:32:15;;;;;;;42.92;21.17;;;;;;;-0.60;75.18;98026.75;6148961;23;20209;-84
2022/12/14 03:34:48;;;;;;;31.40;18.38;;;;;;;-0.65;75.15;98015.78;6145722;23;20195;-83
2022/12/14 03:37:20;;;;;;;31.27;16.20;;;;;;;-0.66;75.33;98027.84;6120548;23;20658;-84
2022/12/14 03:39:46;;;;;;;37.67;19.30;;;;;;;-0.64;75.56;98032.97;6145700;23;20174;-83
2022/12/14 03:42:29;;;;;;;27.60;18.42;;;;;;;-0.64;75.53;98038.13;6148494;23;20278;-83
2022/12/14 03:45:00;;;;;;;32.63;16.83;;;;;;;-0.63;75.58;98050.09;6145953;23;20512;-83
2022/12/14 03:47:31;;;;;;;28.40;15.15;;;;;;;-0.62;75.53;98044.88;6119494;23;20184;-83
2022/12/14 03:50:06;;;;;;;29.00;17.42;;;;;;;-0.60;75.50;98039.66;6143556;23;20200;-83
2022/12/14 03:52:38;;;;;;;28.42;17.58;;;;;;;-0.58;75.47;98032.69;6119568;23;20202;-83
2022/12/14 03:55:26;;;;;;;29.05;17.75;;;;;;;-0.58;75.27;98025.78;6149549;23;20219;-83
2022/12/14 03:58:00;;;;;;;28.85;17.10;;;;;;;-0.58;75.53;98014.63;6149313;23;20232;-83
2022/12/14 04:00:30;;;;;;;30.77;15.20;;;;;;;-0.57;75.54;98029.19;6148768;23;20258;-83
2022/12/14 04:03:20;;;;;;;27.42;17.58;;;;;;;-0.55;75.51;98017.91;6145864;23;20669;-83
2022/12/14 04:06:11;;;;;;;39.35;19.60;;;;;;;-0.51;75.59;98021.22;6148083;23;20189;-83
2022/12/14 04:08:45;;;;;;;29.85;16.67;;;;;;;-0.50;75.70;98004.81;6120610;23;20181;-83
2022/12/14 04:20:05;;;;;;;33.53;18.00;;;;;;;-0.56;75.59;97981.88;6118788;23;20406;-83
2022/12/14 04:22:37;;;;;;;33.22;17.77;;;;;;;-0.58;75.83;97975.94;6147423;23;20183;-82
2022/12/14 04:28:00;;;;;;;32.35;19.00;;;;;;;-0.70;76.40;97967.03;6148457;23;20177;-83
2022/12/14 04:30:30;;;;;;;31.15;18.98;;;;;;;-0.72;76.09;97961.94;6146002;23;20673;-83
2022/12/14 04:32:59;;;;;;;48.40;29.25;;;;;;;-0.73;76.53;97960.28;6147701;23;20480;-83
2022/12/14 04:35:29;;;;;;;35.95;20.48;;;;;;;-0.72;76.94;97954.19;6147115;23;20197;-83
2022/12/14 04:38:02;;;;;;;45.38;19.88;;;;;;;-0.70;76.96;97936.09;6144696;23;20194;-84
2022/12/14 04:40:35;;;;;;;35.38;20.65;;;;;;;-0.69;76.83;97942.91;6145385;23;20477;-83
2022/12/14 04:43:05;;;;;;;31.02;19.15;;;;;;;-0.71;76.77;97948.13;6145760;23;20253;-83
2022/12/14 04:45:36;;;;;;;41.35;21.00;;;;;;;-0.70;76.49;97930.94;6145403;23;20170;-83
2022/12/14 04:48:14;;;;;;;40.05;18.90;;;;;;;-0.74;76.79;97926.81;6151504;23;20184;-83
2022/12/14 04:50:46;;;;;;;26.83;18.10;;;;;;;-0.72;76.62;97918.09;6155771;23;20252;-83
2022/12/14 04:53:24;;;;;;;39.45;20.17;;;;;;;-0.71;76.78;97904.28;6152013;23;20520;-83
2022/12/14 04:56:07;;;;;;;31.15;18.30;;;;;;;-0.68;76.91;97901.56;6149210;23;20290;-84
2022/12/14 04:58:34;;;;;;;36.85;16.88;;;;;;;-0.64;76.88;97888.56;6149915;23;20249;-83
2022/12/14 05:01:21;;;;;;;27.30;16.90;;;;;;;-0.59;76.60;97902.09;6123165;23;20193;-83
2022/12/14 05:04:11;;;;;;;36.75;20.33;;;;;;;-0.53;76.76;97894.06;6146855;23;20480;-83
2022/12/14 05:07:05;;;;;;;30.52;17.17;;;;;;;-0.52;76.63;97893.97;6145647;23;20190;-83
2022/12/14 05:09:33;;;;;;;31.67;17.95;;;;;;;-0.50;76.07;97899.91;6131303;23;20208;-83
2022/12/14 05:12:21;;;;;;;30.70;17.05;;;;;;;-0.49;76.50;97909.34;6146537;23;20198;-84
2022/12/14 05:14:53;;;;;;;25.98;16.17;;;;;;;-0.47;76.50;97904.91;6147647;23;20204;-84
2022/12/14 05:17:18;;;;;;;32.65;17.58;;;;;;;-0.46;76.50;97905.75;6146990;23;20202;-84
2022/12/14 05:19:47;;;;;;;31.13;16.20;;;;;;;-0.45;76.45;97894.53;6147091;23;20178;-84
2022/12/14 05:22:43;;;;;;;26.92;18.42;;;;;;;-0.43;76.36;97904.78;6134530;23;20216;-81
2022/12/14 05:25:12;;;;;;;31.75;16.80;;;;;;;-0.41;76.60;97897.81;6124173;23;20212;-84
2022/12/14 05:27:42;;;;;;;29.60;19.20;;;;;;;-0.40;76.36;97908.06;6155511;23;20172;-83
2022/12/14 05:30:18;;;;;;;40.22;18.60;;;;;;;-0.38;76.43;97905.41;6130150;23;20551;-83
2022/12/14 05:32:43;;;;;;;29.70;17.00;;;;;;;-0.35;76.42;97905.25;6147911;23;20200;-83
2022/12/14 05:35:13;;;;;;;35.40;16.25;;;;;;;-0.32;76.34;97905.97;6141884;23;20278;-83
2022/12/14 05:37:40;;;;;;;33.50;18.83;;;;;;;-0.32;76.38;97911.13;6113703;23;20495;-84
2022/12/14 05:40:06;;;;;;;28.98;17.63;;;;;;;-0.30;76.16;97906.72;6138018;23;20177;-84
2022/12/14 05:42:31;;;;;;;33.25;17.15;;;;;;;-0.27;76.25;97897.97;6141449;23;20190;-84
2022/12/14 05:44:57;;;;;;;30.30;17.80;;;;;;;-0.27;76.07;97895.41;6138011;23;20179;-84
2022/12/14 05:47:23;;;;;;;28.17;16.17;;;;;;;-0.27;76.33;97896.25;6138098;23;20186;-84
2022/12/14 05:49:48;;;;;;;27.73;15.30;;;;;;;-0.26;76.19;97895.34;6142185;23;20185;-84
2022/12/14 05:52:14;;;;;;;34.13;18.20;;;;;;;-0.26;76.09;97892.75;6116352;23;20387;-84
2022/12/14 05:54:39;;;;;;;30.20;18.70;;;;;;;-0.26;76.07;97895.34;6143420;23;20204;-84
2022/12/14 05:57:05;;;;;;;24.73;14.40;;;;;;;-0.27;76.19;97888.53;6138322;23;20171;-84
2022/12/14 05:59:31;;;;;;;31.95;16.33;;;;;;;-0.26;76.25;97876.44;6141144;23;20169;-84
2022/12/14 06:01:57;;;;;;;34.65;18.13;;;;;;;-0.26;76.26;97874.69;6139984;23;20762;-84
2022/12/14 06:04:22;;;;;;;31.07;17.27;;;;;;;-0.27;76.29;97864.44;6138729;23;20173;-84
2022/12/14 06:06:49;;;;;;;31.43;18.67;;;;;;;-0.29;76.47;97868.88;6139264;23;20461;-84
2022/12/14 06:09:15;;;;;;;25.15;14.85;;;;;;;-0.30;76.35;97872.34;6140651;23;20177;-83
2022/12/14 06:11:42;;;;;;;32.63;20.73;;;;;;;-0.32;76.41;97869.84;6142378;23;20262;-84
2022/12/14 06:14:08;;;;;;;30.95;18.08;;;;;;;-0.35;76.31;97858.81;6139009;23;20246;-84
2022/12/14 06:16:34;;;;;;;33.40;19.10;;;;;;;-0.42;76.62;97860.03;6137071;23;20244;-83
2022/12/14 06:19:02;;;;;;;28.60;17.50;;;;;;;-0.42;76.73;97853.13;6112438;23;20623;-84
2022/12/14 06:21:33;;;;;;;26.15;15.55;;;;;;;-0.41;76.82;97852.22;6142966;23;20516;-83
2022/12/14 06:23:59;;;;;;;33.08;17.63;;;;;;;-0.39;76.57;97847.81;6141941;23;20166;-83
2022/12/14 06:26:26;;;;;;;36.35;16.58;;;;;;;-0.35;76.91;97858.81;6143143;23;20168;-83
2022/12/14 06:28:51;;;;;;;28.92;19.13;;;;;;;-0.33;76.59;97851.84;6112789;23;20232;-83
2022/12/14 06:33:46;;;;;;;33.38;18.20;;;;;;;-0.38;77.04;97846.91;6027231;23;20420;-81
2022/12/14 06:36:36;;;;;;;23.80;15.45;;;;;;;-0.38;77.14;97844.31;6055384;23;20171;-82
2022/12/14 06:39:06;;;;;;;27.92;17.90;;;;;;;-0.41;77.17;97835.91;6059423;23;20669;-82
2022/12/14 06:41:31;;;;;;;36.22;18.00;;;;;;;-0.38;77.00;97840.91;6058196;23;20477;-81
2022/12/14 06:44:04;;;;;;;32.07;19.50;;;;;;;-0.34;77.41;97837.28;6085050;23;20202;-81
2022/12/14 06:46:30;;;;;;;26.60;16.30;;;;;;;-0.30;77.22;97847.41;6058742;23;20613;-81
2022/12/14 06:48:56;;;;;;;28.13;17.00;;;;;;;-0.26;77.10;97838.59;6082814;23;20383;-81
2022/12/14 06:51:23;;;;;;;27.60;17.23;;;;;;;-0.22;76.99;97831.53;6084364;23;20230;-82
2022/12/14 06:53:53;;;;;;;36.15;17.83;;;;;;;-0.21;76.96;97824.63;6083586;23;20226;-81
2022/12/14 06:56:20;;;;;;;31.42;19.52;;;;;;;-0.19;76.90;97833.13;6091519;23;20257;-82
2022/12/14 06:58:46;;;;;;;42.88;18.65;;;;;;;-0.18;77.07;97830.47;6090565;23;20174;-81
2022/12/14 07:01:14;;;;;;;27.10;15.20;;;;;;;-0.14;76.95;97838.91;6090498;23;20177;-82
2022/12/14 07:03:40;;;;;;;34.00;16.67;;;;;;;-0.11;76.80;97843.91;6089953;23;20173;-82
2022/12/14 07:06:06;;;;;;;29.10;17.85;;;;;;;-0.09;76.93;97832.59;6087805;23;20174;-81
2022/12/14 07:08:35;;;;;;;32.63;16.02;;;;;;;-0.06;76.53;97831.63;6088954;23;20399;-82
2022/12/14 07:11:06;;;;;;;24.73;16.27;;;;;;;-0.04;76.74;97827.22;6091495;23;20177;-81
2022/12/14 07:13:32;;;;;;;20.83;13.60;;;;;;;-0.02;76.74;97830.56;5871949;23;5003476;-83
2022/12/14 07:15:59;;;;;;;30.30;18.02;;;;;;;-0.01;76.85;97832.22;6082727;23;20191;-83
2022/12/14 07:18:26;;;;;;;29.77;16.60;;;;;;;0.02;76.73;97838.97;6085774;23;20196;-81
2022/12/14 07:21:07;;;;;;;32.38;18.17;;;;;;;0.04;77.10;97835.41;6084376;23;20194;-82
2022/12/14 07:23:36;;;;;;;30.58;18.13;;;;;;;0.05;76.79;97834.50;6089458;23;20207;-82
2022/12/14 07:26:13;;;;;;;35.42;17.70;;;;;;;0.07;76.83;97830.09;6084235;23;20170;-83
2022/12/14 07:28:40;;;;;;;28.60;17.38;;;;;;;0.09;76.87;97828.28;6060195;23;20547;-82
2022/12/14 07:31:10;;;;;;;27.67;16.70;;;;;;;0.10;76.68;97826.53;6087552;23;20536;-82
2022/12/14 07:33:37;;;;;;;36.47;20.65;;;;;;;0.11;76.84;97825.59;6083734;23;20413;-83
2022/12/14 07:36:05;;;;;;;27.13;18.77;;;;;;;0.13;76.94;97828.97;6084193;23;20246;-81
2022/12/14 07:38:32;;;;;;;22.60;15.82;;;;;;;0.12;76.80;97833.28;6084957;23;20408;-81
2022/12/14 07:41:07;;;;;;;34.53;18.08;;;;;;;0.13;76.75;97831.53;6082774;23;20309;-82
2022/12/14 07:43:32;;;;;;;34.55;19.73;;;;;;;0.14;76.95;97828.91;6080532;23;20257;-82
2022/12/14 07:46:00;;;;;;;27.60;16.40;;;;;;;0.15;77.01;97835.72;6082155;23;20278;-82
2022/12/14 07:48:30;;;;;;;24.20;16.38;;;;;;;0.15;76.89;97835.72;6080329;23;20494;-81
2022/12/14 07:51:08;;;;;;;33.35;16.77;;;;;;;0.14;76.85;97846.97;6077877;23;20173;-82
2022/12/14 07:53:34;;;;;;;32.97;17.08;;;;;;;0.12;77.04;97838.44;6080986;23;20432;-82
2022/12/14 07:56:05;;;;;;;34.53;21.10;;;;;;;0.12;77.00;97833.28;6082829;23;20185;-83
2022/12/14 07:58:32;;;;;;;33.10;18.38;;;;;;;0.14;76.96;97828.06;6079927;23;20656;-83
2022/12/14 08:01:09;;;;;;;36.25;19.23;;;;;;;0.16;76.94;97837.41;6081621;23;20255;-82
2022/12/14 08:03:35;;;;;;;30.58;18.52;;;;;;;0.18;76.91;97839.88;6081557;23;20174;-81
2022/12/14 08:06:06;;;;;;;35.40;21.30;;;;;;;0.21;76.91;97840.56;6078666;23;20245;-82
2022/12/14 08:08:32;;;;;;;30.65;18.35;;;;;;;0.22;76.80;97844.00;6080438;23;20196;-82
2022/12/14 08:10:58;;;;;;;28.52;17.25;;;;;;;0.21;76.81;97829.41;6079083;23;20178;-83
2022/12/14 08:13:23;;;;;;;32.10;16.73;;;;;;;0.19;76.58;97834.66;6079136;23;20201;-83
2022/12/14 08:15:49;;;;;;;30.00;16.97;;;;;;;0.18;77.09;97832.97;6079718;23;20422;-83
2022/12/14 08:18:15;;;;;;;41.37;19.03;;;;;;;0.20;76.92;97833.75;6078450;23;20210;-84
2022/12/14 08:20:40;;;;;;;41.30;21.30;;;;;;;0.24;76.97;97833.59;6078769;23;20190;-82
2022/12/14 08:23:06;;;;;;;32.97;21.67;;;;;;;0.26;76.85;97827.44;6078157;23;20423;-83
2022/12/14 08:25:31;;;;;;;24.50;17.20;;;;;;;0.29;76.93;97827.28;6078344;23;20467;-84
2022/12/14 08:27:57;;;;;;;34.67;17.67;;;;;;;0.31;76.59;97820.28;6079597;23;20173;-84
2022/12/14 08:30:23;;;;;;;22.63;14.97;;;;;;;0.35;76.81;97823.53;6079909;23;20624;-84
2022/12/14 08:32:48;;;;;;;25.48;17.65;;;;;;;0.39;76.90;97819.91;6076609;23;20215;-82
2022/12/14 08:35:14;;;;;;;49.92;28.80;;;;;;;0.46;76.84;97820.41;6078623;23;20508;-82
2022/12/14 08:37:39;;;;;;;34.97;22.13;;;;;;;0.50;77.09;97817.59;6078426;23;20439;-84
2022/12/14 08:40:05;;;;;;;26.90;18.50;;;;;;;0.53;77.32;97808.84;6081034;23;20198;-83
2022/12/14 08:42:30;;;;;;;26.40;18.05;;;;;;;0.56;77.11;97816.44;6078349;23;20197;-82
2022/12/14 08:44:56;;;;;;;37.43;17.80;;;;;;;0.57;76.95;97812.97;6076660;23;20467;-84
2022/12/14 08:47:22;;;;;;;30.60;17.37;;;;;;;0.54;76.58;97821.72;6080547;23;20168;-83
2022/12/14 08:49:47;;;;;;;29.83;17.87;;;;;;;0.52;77.05;97814.94;6079761;23;20399;-83
2022/12/14 08:52:12;;;;;;;29.60;18.23;;;;;;;0.52;76.89;97810.63;6076952;23;20274;-83
2022/12/14 08:54:38;;;;;;;27.83;18.03;;;;;;;0.52;76.97;97817.53;6079845;23;20202;-83
2022/12/14 08:57:04;;;;;;;37.03;18.77;;;;;;;0.54;77.30;97818.25;6077360;23;20179;-83
2022/12/14 08:59:29;;;;;;;25.53;16.03;;;;;;;0.55;77.06;97818.19;6078625;23;20937;-83
2022/12/14 09:01:55;;;;;;;31.80;17.57;;;;;;;0.57;76.98;97815.56;6079022;23;20186;-81
2022/12/14 09:04:20;;;;;;;30.17;18.60;;;;;;;0.57;76.80;97800.88;6050708;23;20523;-82
2022/12/14 09:06:45;;;;;;;36.33;20.23;;;;;;;0.60;76.96;97803.31;6079317;23;20612;-83
2022/12/14 09:09:11;;;;;;;34.70;19.43;;;;;;;0.60;76.98;97805.88;6077331;23;20284;-83
2022/12/14 09:11:36;;;;;;;29.10;18.47;;;;;;;0.59;76.72;97816.28;6079406;23;20194;-84
2022/12/14 09:14:02;;;;;;;30.60;19.17;;;;;;;0.58;76.76;97830.94;6078180;23;20201;-85
2022/12/14 09:16:27;;;;;;;28.73;16.53;;;;;;;0.55;76.92;97835.47;6052968;23;20163;-84
2022/12/14 09:18:53;;;;;;;26.10;16.97;;;;;;;0.53;76.95;97832.94;6095490;23;20180;-83
2022/12/14 09:21:19;;;;;;;29.00;18.98;;;;;;;0.54;77.00;97849.25;6094941;23;20191;-84
2022/12/14 09:23:45;;;;;;;37.15;18.75;;;;;;;0.55;77.05;97846.63;6101904;23;20207;-83
2022/12/14 09:26:13;;;;;;;37.77;18.50;;;;;;;0.59;77.16;97840.38;6061788;23;20169;-84
2022/12/14 09:28:40;;;;;;;23.55;15.20;;;;;;;0.60;77.00;97848.97;6081676;23;20501;-84
2022/12/14 09:31:10;;;;;;;31.70;16.90;;;;;;;0.60;77.00;97844.63;6081523;23;20223;-84
2022/12/14 09:33:36;;;;;;;30.83;19.08;;;;;;;0.60;77.24;97846.38;6080314;23;20411;-84
2022/12/14 09:36:05;;;;;;;34.92;19.27;;;;;;;0.58;76.86;97846.44;6079258;23;20178;-84
2022/12/14 09:38:33;;;;;;;37.70;19.40;;;;;;;0.59;77.16;97835.19;6053660;23;20472;-82
2022/12/14 09:41:02;;;;;;;29.52;17.20;;;;;;;0.59;76.89;97824.84;6080016;23;20170;-82
2022/12/14 09:43:54;;;;;;;26.50;19.05;;;;;;;0.61;76.95;97833.38;6082224;23;20202;-82
2022/12/14 09:46:41;;;;;;;30.55;18.45;;;;;;;0.63;76.76;97823.81;6080721;23;20249;-81
2022/12/14 09:49:23;;;;;;;27.67;16.88;;;;;;;0.65;76.92;97821.97;6079556;23;20178;-82
2022/12/14 09:51:49;;;;;;;26.33;17.55;;;;;;;0.66;76.74;97821.06;6082752;23;20719;-83
2022/12/14 09:54:21;;;;;;;35.33;18.60;;;;;;;0.68;77.11;97822.75;6049825;23;20574;-82
2022/12/14 09:56:47;;;;;;;24.42;16.60;;;;;;;0.71;76.79;97810.50;6079851;23;20421;-84
2022/12/14 09:59:16;;;;;;;31.63;18.13;;;;;;;0.74;76.79;97825.00;6055376;23;20595;-82
2022/12/14 10:02:17;;;;;;;31.75;18.38;;;;;;;0.77;76.76;97814.50;6078004;23;20422;-82
2022/12/14 10:04:55;;;;;;;25.90;14.90;;;;;;;0.80;76.93;97816.91;6007556;23;20193;-82
2022/12/14 10:07:42;;;;;;;30.48;17.77;;;;;;;0.82;76.52;97807.34;6058434;23;20173;-88
2022/12/14 10:10:25;;;;;;;28.35;18.50;;;;;;;0.82;76.75;97799.59;6088455;23;20240;-85
2022/12/14 10:13:12;;;;;;;36.22;20.67;;;;;;;0.83;76.75;97804.66;6090023;23;20666;-86
2022/12/14 10:15:58;;;;;;;51.53;26.10;;;;;;;0.85;77.14;97796.84;6088727;23;20331;-86
2022/12/14 10:18:50;;;;;;;41.10;23.55;;;;;;;0.91;76.76;97786.16;6059249;23;20247;-86
2022/12/14 10:21:22;;;;;;;36.20;22.58;;;;;;;0.94;76.86;97783.41;6043733;23;20744;-84
2022/12/14 10:23:56;;;;;;;34.90;21.40;;;;;;;0.97;76.66;97801.31;6081928;23;20169;-86
2022/12/14 10:26:45;;;;;;;29.00;18.75;;;;;;;1.01;76.83;97802.03;6085403;23;20170;-86
2022/12/14 10:29:38;;;;;;;32.40;18.23;;;;;;;1.04;76.69;97802.69;6084373;23;20235;-86
2022/12/14 10:32:29;;;;;;;28.77;17.35;;;;;;;1.07;76.50;97805.09;6082938;23;20656;-85
2022/12/14 10:34:54;;;;;;;29.70;16.90;;;;;;;1.07;76.54;97805.09;6081438;23;20276;-87
2022/12/14 10:37:35;;;;;;;29.13;18.33;;;;;;;1.08;76.40;97785.25;6084857;23;20609;-87
2022/12/14 10:40:25;;;;;;;25.48;17.25;;;;;;;1.08;76.65;97785.25;6085438;23;20256;-87
2022/12/14 10:43:12;;;;;;;28.23;16.85;;;;;;;1.07;76.75;97788.75;6083145;23;20708;-84
2022/12/14 10:45:55;;;;;;;25.63;16.20;;;;;;;1.06;76.63;97793.09;6082707;23;20185;-86
2022/12/14 10:48:49;;;;;;;33.55;20.17;;;;;;;1.07;76.79;97787.00;6085306;23;20227;-87
2022/12/14 10:51:26;;;;;;;27.67;17.20;;;;;;;1.10;76.55;97793.75;6099170;23;20163;-89
2022/12/14 10:54:02;;;;;;;30.58;17.67;;;;;;;1.13;76.78;97788.41;6103972;23;20209;-87
2022/12/14 10:56:31;;;;;;;34.13;18.20;;;;;;;1.17;76.63;97783.94;6090629;23;20253;-85
2022/12/14 10:59:15;;;;;;;34.20;17.23;;;;;;;1.16;76.59;97793.44;6081922;23;20814;-85
2022/12/14 11:01:41;;;;;;;26.88;16.13;;;;;;;1.17;76.88;97796.84;6082703;23;20189;-86
2022/12/14 11:04:49;;;;;;;31.73;17.05;;;;;;;1.16;76.52;97790.84;6080621;23;20245;-87
2022/12/14 11:07:17;;;;;;;26.08;17.50;;;;;;;1.17;76.80;97782.16;6081556;23;20194;-86
2022/12/14 11:09:43;;;;;;;25.75;16.83;;;;;;;1.20;76.92;97789.75;6060189;23;20767;-87
2022/12/14 11:12:12;;;;;;;27.40;18.73;;;;;;;1.22;76.55;97795.69;6080900;23;20228;-86
2022/12/14 11:14:40;;;;;;;31.40;17.80;;;;;;;1.23;76.84;97799.94;6082887;23;20709;-86
2022/12/14 11:17:34;;;;;;;28.58;16.85;;;;;;;1.27;76.87;97803.16;6081463;23;20254;-86
2022/12/14 11:20:26;;;;;;;32.05;18.00;;;;;;;1.29;76.85;97801.34;6082030;23;20187;-84
2022/12/14 11:22:58;;;;;;;25.00;15.30;;;;;;;1.28;76.84;97800.50;6077160;23;20213;-85
2022/12/14 11:25:34;;;;;;;29.58;17.35;;;;;;;1.27;76.56;97800.59;6082815;23;20466;-84
2022/12/14 11:28:13;;;;;;;27.10;18.50;;;;;;;1.26;76.63;97793.75;6081742;23;20267;-87
2022/12/14 11:30:39;;;;;;;31.48;18.25;;;;;;;1.25;76.68;97787.75;6084677;23;20242;-84
2022/12/14 11:33:05;;;;;;;29.70;16.87;;;;;;;1.25;76.90;97789.50;6084899;23;20210;-86
2022/12/14 11:35:31;;;;;;;27.90;16.87;;;;;;;1.27;76.84;97785.06;6084288;23;20449;-87
2022/12/14 11:38:00;;;;;;;26.57;16.50;;;;;;;1.28;76.64;97794.50;6084485;23;20194;-86
2022/12/14 11:40:26;;;;;;;32.20;18.83;;;;;;;1.28;76.84;97794.50;6085276;23;20691;-85
2022/12/14 11:43:00;;;;;;;27.23;16.77;;;;;;;1.28;77.15;97794.50;6089360;23;20654;-87
2022/12/14 11:45:32;;;;;;;32.65;19.55;;;;;;;1.30;76.89;97798.69;6092861;23;20830;-87
2022/12/14 11:48:13;;;;;;;26.95;17.10;;;;;;;1.32;76.66;97801.16;6082863;23;20181;-84
2022/12/14 11:50:39;;;;;;;21.02;14.77;;;;;;;1.32;76.81;97801.16;6083562;23;20187;-85
2022/12/14 11:53:08;;;;;;;30.33;17.70;;;;;;;1.31;77.01;97808.09;6081872;23;20243;-83
2022/12/14 11:55:37;;;;;;;25.30;15.70;;;;;;;1.33;76.98;97818.38;6081739;23;20767;-85